sensor_id;sensor_type;location;lat;lon;timestamp;P1;durP1;ratioP1;P2;durP2;ratioP2
15938;SDS011;8068;51.322;9.450;2022-11-02T00:02:21;15.70;;;1.83;;
15938;SDS011;8068;51.322;9.450;2022-11-02T00:04:47;5.90;;;1.30;;
15938;SDS011;8068;51.322;9.450;2022-11-02T00:07:14;8.57;;;1.53;;
15938;SDS011;8068;51.322;9.450;2022-11-02T00:09:46;11.43;;;2.57;;
15938;SDS011;8068;51.322;9.450;2022-11-02T00:12:16;6.80;;;2.07;;
15938;SDS011;8068;51.322;9.450;2022-11-02T00:14:42;5.77;;;1.50;;
15938;SDS011;8068;51.322;9.450;2022-11-02T00:17:08;6.87;;;1.77;;
15938;SDS011;8068;51.322;9.450;2022-11-02T00:19:40;6.33;;;2.07;;
15938;SDS011;8068;51.322;9.450;2022-11-02T00:22:09;7.93;;;1.57;;
15938;SDS011;8068;51.322;9.450;2022-11-02T00:24:35;7.57;;;1.80;;
15938;SDS011;8068;51.322;9.450;2022-11-02T00:27:01;11.30;;;2.17;;
15938;SDS011;8068;51.322;9.450;2022-11-02T00:29:34;10.60;;;2.43;;
15938;SDS011;8068;51.322;9.450;2022-11-02T00:32:01;4.37;;;1.47;;
15938;SDS011;8068;51.322;9.450;2022-11-02T00:34:27;9.43;;;2.00;;
15938;SDS011;8068;51.322;9.450;2022-11-02T00:36:53;7.03;;;1.53;;
15938;SDS011;8068;51.322;9.450;2022-11-02T00:39:29;6.37;;;1.80;;
15938;SDS011;8068;51.322;9.450;2022-11-02T00:41:55;5.53;;;1.60;;
15938;SDS011;8068;51.322;9.450;2022-11-02T00:44:22;7.60;;;1.47;;
15938;SDS011;8068;51.322;9.450;2022-11-02T00:46:48;3.50;;;1.37;;
15938;SDS011;8068;51.322;9.450;2022-11-02T00:49:15;4.83;;;1.40;;
15938;SDS011;8068;51.322;9.450;2022-11-02T00:51:46;11.57;;;1.80;;
15938;SDS011;8068;51.322;9.450;2022-11-02T00:54:16;10.10;;;2.10;;
15938;SDS011;8068;51.322;9.450;2022-11-02T00:56:45;4.93;;;1.77;;
15938;SDS011;8068;51.322;9.450;2022-11-02T00:59:19;6.03;;;1.83;;
15938;SDS011;8068;51.322;9.450;2022-11-02T01:01:49;18.27;;;1.87;;
15938;SDS011;8068;51.322;9.450;2022-11-02T01:04:18;11.20;;;2.10;;
15938;SDS011;8068;51.322;9.450;2022-11-02T01:06:49;7.40;;;1.77;;
15938;SDS011;8068;51.322;9.450;2022-11-02T01:09:19;8.50;;;1.27;;
15938;SDS011;8068;51.322;9.450;2022-11-02T01:11:48;8.60;;;1.80;;
15938;SDS011;8068;51.322;9.450;2022-11-02T01:14:18;5.43;;;1.70;;
15938;SDS011;8068;51.322;9.450;2022-11-02T01:16:47;12.23;;;1.87;;
15938;SDS011;8068;51.322;9.450;2022-11-02T01:19:17;7.70;;;1.70;;
15938;SDS011;8068;51.322;9.450;2022-11-02T01:21:47;7.67;;;1.70;;
15938;SDS011;8068;51.322;9.450;2022-11-02T01:24:17;5.10;;;1.73;;
15938;SDS011;8068;51.322;9.450;2022-11-02T01:26:50;2.63;;;1.37;;
15938;SDS011;8068;51.322;9.450;2022-11-02T01:29:19;7.60;;;1.47;;
15938;SDS011;8068;51.322;9.450;2022-11-02T01:31:48;8.43;;;2.40;;
15938;SDS011;8068;51.322;9.450;2022-11-02T01:34:18;6.33;;;1.50;;
15938;SDS011;8068;51.322;9.450;2022-11-02T01:36:51;7.73;;;2.20;;
15938;SDS011;8068;51.322;9.450;2022-11-02T01:39:20;6.50;;;1.47;;
15938;SDS011;8068;51.322;9.450;2022-11-02T01:41:50;3.83;;;1.50;;
15938;SDS011;8068;51.322;9.450;2022-11-02T01:44:24;11.23;;;1.70;;
15938;SDS011;8068;51.322;9.450;2022-11-02T01:46:52;7.73;;;2.30;;
15938;SDS011;8068;51.322;9.450;2022-11-02T01:49:20;4.40;;;1.40;;
15938;SDS011;8068;51.322;9.450;2022-11-02T01:51:58;8.30;;;1.80;;
15938;SDS011;8068;51.322;9.450;2022-11-02T01:54:39;9.23;;;1.37;;
15938;SDS011;8068;51.322;9.450;2022-11-02T01:57:07;10.10;;;2.07;;
15938;SDS011;8068;51.322;9.450;2022-11-02T01:59:41;2.80;;;1.30;;
15938;SDS011;8068;51.322;9.450;2022-11-02T02:02:19;8.67;;;2.33;;
15938;SDS011;8068;51.322;9.450;2022-11-02T02:04:50;13.17;;;2.20;;
15938;SDS011;8068;51.322;9.450;2022-11-02T02:07:19;17.60;;;2.60;;
15938;SDS011;8068;51.322;9.450;2022-11-02T02:09:52;4.20;;;1.43;;
15938;SDS011;8068;51.322;9.450;2022-11-02T02:12:23;10.50;;;1.90;;
15938;SDS011;8068;51.322;9.450;2022-11-02T02:14:50;11.57;;;1.50;;
15938;SDS011;8068;51.322;9.450;2022-11-02T02:17:30;9.63;;;1.80;;
15938;SDS011;8068;51.322;9.450;2022-11-02T02:29:16;7.37;;;1.73;;
15938;SDS011;8068;51.322;9.450;2022-11-02T02:34:37;5.20;;;1.80;;
15938;SDS011;8068;51.322;9.450;2022-11-02T02:37:28;12.63;;;2.43;;
15938;SDS011;8068;51.322;9.450;2022-11-02T02:40:04;11.07;;;1.97;;
15938;SDS011;8068;51.322;9.450;2022-11-02T02:42:43;6.33;;;2.53;;
15938;SDS011;8068;51.322;9.450;2022-11-02T02:50:47;4.87;;;1.77;;
15938;SDS011;8068;51.322;9.450;2022-11-02T02:53:19;4.37;;;1.70;;
15938;SDS011;8068;51.322;9.450;2022-11-02T02:55:53;10.30;;;2.20;;
15938;SDS011;8068;51.322;9.450;2022-11-02T02:58:25;6.57;;;1.73;;
15938;SDS011;8068;51.322;9.450;2022-11-02T03:00:58;9.67;;;2.30;;
15938;SDS011;8068;51.322;9.450;2022-11-02T03:03:29;10.17;;;2.53;;
15938;SDS011;8068;51.322;9.450;2022-11-02T03:08:37;14.23;;;2.00;;
15938;SDS011;8068;51.322;9.450;2022-11-02T03:11:12;6.10;;;1.37;;
15938;SDS011;8068;51.322;9.450;2022-11-02T03:28:25;5.67;;;1.60;;
15938;SDS011;8068;51.322;9.450;2022-11-02T03:42:42;9.93;;;1.50;;
15938;SDS011;8068;51.322;9.450;2022-11-02T03:45:22;8.47;;;1.27;;
15938;SDS011;8068;51.322;9.450;2022-11-02T03:47:56;6.10;;;1.57;;
15938;SDS011;8068;51.322;9.450;2022-11-02T03:50:29;6.90;;;1.43;;
15938;SDS011;8068;51.322;9.450;2022-11-02T03:53:04;8.60;;;1.67;;
15938;SDS011;8068;51.322;9.450;2022-11-02T03:55:38;7.40;;;1.47;;
15938;SDS011;8068;51.322;9.450;2022-11-02T03:58:11;7.93;;;1.53;;
15938;SDS011;8068;51.322;9.450;2022-11-02T04:00:46;5.70;;;1.80;;
15938;SDS011;8068;51.322;9.450;2022-11-02T04:03:19;5.77;;;1.20;;
15938;SDS011;8068;51.322;9.450;2022-11-02T04:05:51;4.73;;;1.90;;
15938;SDS011;8068;51.322;9.450;2022-11-02T04:08:27;3.20;;;1.30;;
15938;SDS011;8068;51.322;9.450;2022-11-02T04:11:00;9.60;;;1.30;;
15938;SDS011;8068;51.322;9.450;2022-11-02T04:13:45;5.03;;;1.80;;
15938;SDS011;8068;51.322;9.450;2022-11-02T04:16:34;5.30;;;1.70;;
15938;SDS011;8068;51.322;9.450;2022-11-02T04:19:04;11.40;;;1.40;;
15938;SDS011;8068;51.322;9.450;2022-11-02T04:21:53;8.63;;;2.03;;
15938;SDS011;8068;51.322;9.450;2022-11-02T04:24:42;5.20;;;1.50;;
15938;SDS011;8068;51.322;9.450;2022-11-02T04:27:34;7.97;;;1.60;;
15938;SDS011;8068;51.322;9.450;2022-11-02T04:30:04;3.57;;;1.57;;
15938;SDS011;8068;51.322;9.450;2022-11-02T04:32:41;3.37;;;1.60;;
15938;SDS011;8068;51.322;9.450;2022-11-02T04:35:32;10.00;;;2.00;;
15938;SDS011;8068;51.322;9.450;2022-11-02T04:38:03;6.30;;;1.60;;
15938;SDS011;8068;51.322;9.450;2022-11-02T04:40:49;7.83;;;1.70;;
15938;SDS011;8068;51.322;9.450;2022-11-02T04:43:35;11.60;;;1.73;;
15938;SDS011;8068;51.322;9.450;2022-11-02T04:46:01;3.93;;;1.97;;
15938;SDS011;8068;51.322;9.450;2022-11-02T04:48:31;7.93;;;1.93;;
15938;SDS011;8068;51.322;9.450;2022-11-02T04:50:59;8.83;;;2.37;;
15938;SDS011;8068;51.322;9.450;2022-11-02T04:53:25;6.27;;;1.80;;
15938;SDS011;8068;51.322;9.450;2022-11-02T04:55:51;8.10;;;1.70;;
15938;SDS011;8068;51.322;9.450;2022-11-02T04:58:21;11.97;;;2.30;;
15938;SDS011;8068;51.322;9.450;2022-11-02T05:00:47;9.03;;;1.83;;
15938;SDS011;8068;51.322;9.450;2022-11-02T05:03:13;3.80;;;1.87;;
15938;SDS011;8068;51.322;9.450;2022-11-02T05:05:39;7.50;;;2.23;;
15938;SDS011;8068;51.322;9.450;2022-11-02T05:08:15;6.57;;;2.27;;
15938;SDS011;8068;51.322;9.450;2022-11-02T05:10:44;8.60;;;1.90;;
15938;SDS011;8068;51.322;9.450;2022-11-02T05:13:14;8.83;;;2.40;;
15938;SDS011;8068;51.322;9.450;2022-11-02T05:15:43;3.30;;;1.50;;
15938;SDS011;8068;51.322;9.450;2022-11-02T05:18:12;9.83;;;2.40;;
15938;SDS011;8068;51.322;9.450;2022-11-02T05:20:49;6.40;;;2.13;;
15938;SDS011;8068;51.322;9.450;2022-11-02T05:23:17;8.33;;;2.40;;
15938;SDS011;8068;51.322;9.450;2022-11-02T05:25:58;12.90;;;2.70;;
15938;SDS011;8068;51.322;9.450;2022-11-02T05:28:24;9.13;;;2.07;;
15938;SDS011;8068;51.322;9.450;2022-11-02T05:30:51;5.13;;;1.80;;
15938;SDS011;8068;51.322;9.450;2022-11-02T05:33:19;12.43;;;3.20;;
15938;SDS011;8068;51.322;9.450;2022-11-02T05:35:48;5.53;;;2.10;;
15938;SDS011;8068;51.322;9.450;2022-11-02T05:38:18;7.70;;;2.40;;
15938;SDS011;8068;51.322;9.450;2022-11-02T05:40:51;12.47;;;2.47;;
15938;SDS011;8068;51.322;9.450;2022-11-02T05:43:26;13.20;;;2.27;;
15938;SDS011;8068;51.322;9.450;2022-11-02T05:45:59;7.13;;;2.67;;
15938;SDS011;8068;51.322;9.450;2022-11-02T05:48:27;12.90;;;3.40;;
15938;SDS011;8068;51.322;9.450;2022-11-02T05:51:00;8.67;;;2.07;;
15938;SDS011;8068;51.322;9.450;2022-11-02T05:53:27;5.63;;;2.90;;
15938;SDS011;8068;51.322;9.450;2022-11-02T05:55:59;3.93;;;2.00;;
15938;SDS011;8068;51.322;9.450;2022-11-02T05:58:26;17.20;;;2.20;;
15938;SDS011;8068;51.322;9.450;2022-11-02T06:01:03;3.87;;;1.80;;
15938;SDS011;8068;51.322;9.450;2022-11-02T06:03:32;4.80;;;2.17;;
15938;SDS011;8068;51.322;9.450;2022-11-02T06:06:02;6.33;;;2.00;;
15938;SDS011;8068;51.322;9.450;2022-11-02T06:08:36;13.47;;;2.50;;
15938;SDS011;8068;51.322;9.450;2022-11-02T06:11:06;11.83;;;2.33;;
15938;SDS011;8068;51.322;9.450;2022-11-02T06:13:33;12.13;;;2.03;;
15938;SDS011;8068;51.322;9.450;2022-11-02T06:16:00;5.17;;;2.40;;
15938;SDS011;8068;51.322;9.450;2022-11-02T06:18:30;6.60;;;2.17;;
15938;SDS011;8068;51.322;9.450;2022-11-02T06:21:00;6.70;;;2.27;;
15938;SDS011;8068;51.322;9.450;2022-11-02T06:23:30;5.57;;;2.10;;
15938;SDS011;8068;51.322;9.450;2022-11-02T06:25:59;8.40;;;2.23;;
15938;SDS011;8068;51.322;9.450;2022-11-02T06:28:34;4.90;;;2.37;;
15938;SDS011;8068;51.322;9.450;2022-11-02T06:31:03;7.17;;;2.43;;
15938;SDS011;8068;51.322;9.450;2022-11-02T06:33:32;9.43;;;1.90;;
15938;SDS011;8068;51.322;9.450;2022-11-02T06:36:02;5.67;;;1.90;;
15938;SDS011;8068;51.322;9.450;2022-11-02T06:38:31;8.50;;;3.00;;
15938;SDS011;8068;51.322;9.450;2022-11-02T06:41:02;5.93;;;1.73;;
15938;SDS011;8068;51.322;9.450;2022-11-02T06:43:31;12.87;;;2.50;;
15938;SDS011;8068;51.322;9.450;2022-11-02T06:46:00;9.40;;;1.67;;
15938;SDS011;8068;51.322;9.450;2022-11-02T06:48:30;11.20;;;3.10;;
15938;SDS011;8068;51.322;9.450;2022-11-02T06:51:01;4.77;;;2.03;;
15938;SDS011;8068;51.322;9.450;2022-11-02T06:53:30;6.90;;;2.47;;
15938;SDS011;8068;51.322;9.450;2022-11-02T06:56:04;7.73;;;1.97;;
15938;SDS011;8068;51.322;9.450;2022-11-02T06:58:34;10.10;;;2.80;;
15938;SDS011;8068;51.322;9.450;2022-11-02T07:01:04;7.23;;;2.20;;
15938;SDS011;8068;51.322;9.450;2022-11-02T07:03:34;10.17;;;2.03;;
15938;SDS011;8068;51.322;9.450;2022-11-02T07:06:04;5.13;;;2.10;;
15938;SDS011;8068;51.322;9.450;2022-11-02T07:08:36;9.70;;;2.53;;
15938;SDS011;8068;51.322;9.450;2022-11-02T07:11:03;10.07;;;2.90;;
15938;SDS011;8068;51.322;9.450;2022-11-02T07:13:34;14.97;;;2.50;;
15938;SDS011;8068;51.322;9.450;2022-11-02T07:16:04;6.60;;;2.20;;
15938;SDS011;8068;51.322;9.450;2022-11-02T07:18:33;8.63;;;1.83;;
15938;SDS011;8068;51.322;9.450;2022-11-02T07:21:03;5.70;;;2.00;;
15938;SDS011;8068;51.322;9.450;2022-11-02T07:23:37;8.93;;;2.10;;
15938;SDS011;8068;51.322;9.450;2022-11-02T07:26:07;8.20;;;2.20;;
15938;SDS011;8068;51.322;9.450;2022-11-02T07:28:37;11.47;;;1.83;;
15938;SDS011;8068;51.322;9.450;2022-11-02T07:31:07;13.23;;;2.80;;
15938;SDS011;8068;51.322;9.450;2022-11-02T07:33:37;9.20;;;2.43;;
15938;SDS011;8068;51.322;9.450;2022-11-02T07:36:07;9.23;;;2.40;;
15938;SDS011;8068;51.322;9.450;2022-11-02T07:38:37;14.50;;;2.10;;
15938;SDS011;8068;51.322;9.450;2022-11-02T07:41:10;5.33;;;2.40;;
15938;SDS011;8068;51.322;9.450;2022-11-02T07:43:40;6.20;;;2.37;;
15938;SDS011;8068;51.322;9.450;2022-11-02T07:46:10;4.17;;;1.77;;
15938;SDS011;8068;51.322;9.450;2022-11-02T07:48:40;7.30;;;2.20;;
15938;SDS011;8068;51.322;9.450;2022-11-02T07:51:11;5.57;;;2.10;;
15938;SDS011;8068;51.322;9.450;2022-11-02T07:53:41;11.67;;;1.97;;
15938;SDS011;8068;51.322;9.450;2022-11-02T07:56:11;8.83;;;2.27;;
15938;SDS011;8068;51.322;9.450;2022-11-02T07:58:42;9.93;;;2.10;;
15938;SDS011;8068;51.322;9.450;2022-11-02T08:01:12;6.30;;;2.27;;
15938;SDS011;8068;51.322;9.450;2022-11-02T08:03:41;19.63;;;2.57;;
15938;SDS011;8068;51.322;9.450;2022-11-02T08:06:10;13.63;;;2.10;;
15938;SDS011;8068;51.322;9.450;2022-11-02T08:08:46;4.77;;;1.63;;
15938;SDS011;8068;51.322;9.450;2022-11-02T08:11:15;9.30;;;2.40;;
15938;SDS011;8068;51.322;9.450;2022-11-02T08:13:45;8.80;;;1.97;;
15938;SDS011;8068;51.322;9.450;2022-11-02T08:16:14;5.53;;;2.00;;
15938;SDS011;8068;51.322;9.450;2022-11-02T08:18:44;6.80;;;2.57;;
15938;SDS011;8068;51.322;9.450;2022-11-02T08:21:13;7.37;;;2.00;;
15938;SDS011;8068;51.322;9.450;2022-11-02T08:23:42;10.20;;;2.10;;
15938;SDS011;8068;51.322;9.450;2022-11-02T08:26:11;3.60;;;2.00;;
15938;SDS011;8068;51.322;9.450;2022-11-02T08:28:41;5.93;;;2.33;;
15938;SDS011;8068;51.322;9.450;2022-11-02T08:31:15;9.47;;;1.93;;
15938;SDS011;8068;51.322;9.450;2022-11-02T08:33:42;8.37;;;2.27;;
15938;SDS011;8068;51.322;9.450;2022-11-02T08:36:18;9.57;;;2.00;;
15938;SDS011;8068;51.322;9.450;2022-11-02T08:38:46;7.33;;;2.00;;
15938;SDS011;8068;51.322;9.450;2022-11-02T08:41:15;3.10;;;1.50;;
15938;SDS011;8068;51.322;9.450;2022-11-02T08:43:44;2.77;;;1.73;;
15938;SDS011;8068;51.322;9.450;2022-11-02T08:46:14;13.73;;;2.00;;
15938;SDS011;8068;51.322;9.450;2022-11-02T08:48:43;6.90;;;2.00;;
15938;SDS011;8068;51.322;9.450;2022-11-02T08:51:12;12.97;;;2.47;;
15938;SDS011;8068;51.322;9.450;2022-11-02T08:53:42;6.23;;;1.70;;
15938;SDS011;8068;51.322;9.450;2022-11-02T08:56:15;8.53;;;2.20;;
15938;SDS011;8068;51.322;9.450;2022-11-02T08:58:41;9.67;;;2.40;;
15938;SDS011;8068;51.322;9.450;2022-11-02T09:01:12;6.07;;;2.10;;
15938;SDS011;8068;51.322;9.450;2022-11-02T09:03:47;15.83;;;2.37;;
15938;SDS011;8068;51.322;9.450;2022-11-02T09:06:16;6.90;;;1.90;;
15938;SDS011;8068;51.322;9.450;2022-11-02T09:08:46;10.00;;;2.00;;
15938;SDS011;8068;51.322;9.450;2022-11-02T09:11:15;8.63;;;1.93;;
15938;SDS011;8068;51.322;9.450;2022-11-02T09:13:44;6.33;;;1.90;;
15938;SDS011;8068;51.322;9.450;2022-11-02T09:16:14;5.57;;;1.50;;
15938;SDS011;8068;51.322;9.450;2022-11-02T09:18:43;7.30;;;2.07;;
15938;SDS011;8068;51.322;9.450;2022-11-02T09:21:12;8.80;;;1.80;;
15938;SDS011;8068;51.322;9.450;2022-11-02T09:23:42;7.73;;;1.63;;
15938;SDS011;8068;51.322;9.450;2022-11-02T09:26:11;5.70;;;2.10;;
15938;SDS011;8068;51.322;9.450;2022-11-02T09:28:41;9.67;;;1.77;;
15938;SDS011;8068;51.322;9.450;2022-11-02T09:31:13;4.67;;;1.50;;
15938;SDS011;8068;51.322;9.450;2022-11-02T09:33:43;4.50;;;1.77;;
15938;SDS011;8068;51.322;9.450;2022-11-02T09:36:12;5.37;;;1.73;;
15938;SDS011;8068;51.322;9.450;2022-11-02T09:38:42;9.43;;;2.03;;
15938;SDS011;8068;51.322;9.450;2022-11-02T09:41:29;5.73;;;1.70;;
15938;SDS011;8068;51.322;9.450;2022-11-02T09:44:01;5.00;;;1.20;;
15938;SDS011;8068;51.322;9.450;2022-11-02T09:46:44;12.17;;;1.80;;
15938;SDS011;8068;51.322;9.450;2022-11-02T09:49:15;8.03;;;2.03;;
15938;SDS011;8068;51.322;9.450;2022-11-02T09:51:56;6.33;;;1.60;;
15938;SDS011;8068;51.322;9.450;2022-11-02T09:54:35;4.87;;;1.53;;
15938;SDS011;8068;51.322;9.450;2022-11-02T09:57:10;4.63;;;1.50;;
15938;SDS011;8068;51.322;9.450;2022-11-02T09:59:44;6.87;;;1.67;;
15938;SDS011;8068;51.322;9.450;2022-11-02T10:05:14;4.87;;;1.57;;
15938;SDS011;8068;51.322;9.450;2022-11-02T10:10:40;6.67;;;1.70;;
15938;SDS011;8068;51.322;9.450;2022-11-02T10:13:42;4.40;;;1.63;;
15938;SDS011;8068;51.322;9.450;2022-11-02T10:16:13;7.87;;;1.90;;
15938;SDS011;8068;51.322;9.450;2022-11-02T10:18:44;4.87;;;1.33;;
15938;SDS011;8068;51.322;9.450;2022-11-02T10:21:17;7.47;;;1.73;;
15938;SDS011;8068;51.322;9.450;2022-11-02T10:23:49;2.80;;;1.20;;
15938;SDS011;8068;51.322;9.450;2022-11-02T10:26:25;6.43;;;1.57;;
15938;SDS011;8068;51.322;9.450;2022-11-02T10:28:58;7.80;;;1.73;;
15938;SDS011;8068;51.322;9.450;2022-11-02T10:31:29;3.47;;;1.50;;
15938;SDS011;8068;51.322;9.450;2022-11-02T10:34:12;3.27;;;2.20;;
15938;SDS011;8068;51.322;9.450;2022-11-02T10:37:06;6.43;;;1.80;;
15938;SDS011;8068;51.322;9.450;2022-11-02T10:51:12;7.83;;;1.90;;
15938;SDS011;8068;51.322;9.450;2022-11-02T10:53:44;2.73;;;1.40;;
15938;SDS011;8068;51.322;9.450;2022-11-02T10:56:17;6.27;;;1.63;;
15938;SDS011;8068;51.322;9.450;2022-11-02T10:59:13;4.33;;;1.30;;
15938;SDS011;8068;51.322;9.450;2022-11-02T11:04:28;3.97;;;1.33;;
15938;SDS011;8068;51.322;9.450;2022-11-02T11:07:05;2.47;;;1.30;;
15938;SDS011;8068;51.322;9.450;2022-11-02T11:09:45;2.07;;;1.20;;
15938;SDS011;8068;51.322;9.450;2022-11-02T11:12:19;1.97;;;1.00;;
15938;SDS011;8068;51.322;9.450;2022-11-02T11:15:00;2.43;;;0.90;;
15938;SDS011;8068;51.322;9.450;2022-11-02T11:17:51;2.80;;;1.43;;
15938;SDS011;8068;51.322;9.450;2022-11-02T11:20:41;4.13;;;1.17;;
15938;SDS011;8068;51.322;9.450;2022-11-02T11:28:31;1.87;;;1.07;;
15938;SDS011;8068;51.322;9.450;2022-11-02T11:33:42;2.50;;;1.00;;
15938;SDS011;8068;51.322;9.450;2022-11-02T11:36:10;3.20;;;1.37;;
15938;SDS011;8068;51.322;9.450;2022-11-02T11:39:15;3.10;;;0.90;;
15938;SDS011;8068;51.322;9.450;2022-11-02T11:41:58;2.57;;;1.50;;
15938;SDS011;8068;51.322;9.450;2022-11-02T11:44:30;6.03;;;1.40;;
15938;SDS011;8068;51.322;9.450;2022-11-02T11:47:00;3.30;;;1.40;;
15938;SDS011;8068;51.322;9.450;2022-11-02T11:49:31;2.37;;;0.90;;
15938;SDS011;8068;51.322;9.450;2022-11-02T11:52:27;4.20;;;0.93;;
15938;SDS011;8068;51.322;9.450;2022-11-02T11:55:18;4.60;;;1.00;;
15938;SDS011;8068;51.322;9.450;2022-11-02T11:58:05;1.90;;;0.97;;
15938;SDS011;8068;51.322;9.450;2022-11-02T12:00:45;4.77;;;1.10;;
15938;SDS011;8068;51.322;9.450;2022-11-02T12:03:12;4.63;;;1.10;;
15938;SDS011;8068;51.322;9.450;2022-11-02T12:05:52;2.23;;;1.10;;
15938;SDS011;8068;51.322;9.450;2022-11-02T12:11:10;5.90;;;1.10;;
15938;SDS011;8068;51.322;9.450;2022-11-02T12:17:03;10.00;;;1.07;;
15938;SDS011;8068;51.322;9.450;2022-11-02T12:22:14;3.50;;;0.90;;
15938;SDS011;8068;51.322;9.450;2022-11-02T12:30:34;11.97;;;1.27;;
15938;SDS011;8068;51.322;9.450;2022-11-02T12:38:59;1.70;;;0.80;;
15938;SDS011;8068;51.322;9.450;2022-11-02T12:55:35;3.27;;;0.93;;
15938;SDS011;8068;51.322;9.450;2022-11-02T12:58:19;4.77;;;0.90;;
15938;SDS011;8068;51.322;9.450;2022-11-02T13:00:48;3.53;;;0.93;;
15938;SDS011;8068;51.322;9.450;2022-11-02T13:06:22;4.23;;;0.83;;
15938;SDS011;8068;51.322;9.450;2022-11-02T13:09:01;1.97;;;0.80;;
15938;SDS011;8068;51.322;9.450;2022-11-02T13:14:46;7.57;;;1.10;;
15938;SDS011;8068;51.322;9.450;2022-11-02T13:17:34;3.10;;;1.00;;
15938;SDS011;8068;51.322;9.450;2022-11-02T13:20:22;2.83;;;1.10;;
15938;SDS011;8068;51.322;9.450;2022-11-02T13:22:55;2.20;;;0.80;;
15938;SDS011;8068;51.322;9.450;2022-11-02T13:25:47;3.20;;;0.80;;
15938;SDS011;8068;51.322;9.450;2022-11-02T13:31:00;2.83;;;0.90;;
15938;SDS011;8068;51.322;9.450;2022-11-02T13:33:52;4.27;;;0.90;;
15938;SDS011;8068;51.322;9.450;2022-11-02T13:36:23;2.70;;;0.80;;
15938;SDS011;8068;51.322;9.450;2022-11-02T13:38:58;1.60;;;0.73;;
15938;SDS011;8068;51.322;9.450;2022-11-02T13:50:06;7.97;;;1.03;;
15938;SDS011;8068;51.322;9.450;2022-11-02T13:52:44;2.70;;;1.17;;
15938;SDS011;8068;51.322;9.450;2022-11-02T13:55:16;3.57;;;1.30;;
15938;SDS011;8068;51.322;9.450;2022-11-02T13:57:45;3.67;;;0.97;;
15938;SDS011;8068;51.322;9.450;2022-11-02T14:02:52;1.83;;;0.80;;
15938;SDS011;8068;51.322;9.450;2022-11-02T14:05:29;3.60;;;0.90;;
15938;SDS011;8068;51.322;9.450;2022-11-02T14:08:00;6.13;;;0.80;;
15938;SDS011;8068;51.322;9.450;2022-11-02T14:10:38;3.60;;;0.73;;
15938;SDS011;8068;51.322;9.450;2022-11-02T14:13:13;7.97;;;1.77;;
15938;SDS011;8068;51.322;9.450;2022-11-02T14:15:50;5.23;;;0.80;;
15938;SDS011;8068;51.322;9.450;2022-11-02T14:18:26;3.23;;;0.97;;
15938;SDS011;8068;51.322;9.450;2022-11-02T14:21:37;2.20;;;0.60;;
15938;SDS011;8068;51.322;9.450;2022-11-02T14:27:03;3.00;;;0.87;;
15938;SDS011;8068;51.322;9.450;2022-11-02T14:29:54;3.20;;;0.80;;
15938;SDS011;8068;51.322;9.450;2022-11-02T14:32:30;1.93;;;0.60;;
15938;SDS011;8068;51.322;9.450;2022-11-02T14:41:22;3.00;;;0.77;;
15938;SDS011;8068;51.322;9.450;2022-11-02T14:49:52;3.63;;;0.80;;
15938;SDS011;8068;51.322;9.450;2022-11-02T14:52:29;30.07;;;0.80;;
15938;SDS011;8068;51.322;9.450;2022-11-02T14:57:35;2.37;;;0.80;;
15938;SDS011;8068;51.322;9.450;2022-11-02T15:00:15;2.80;;;0.60;;
15938;SDS011;8068;51.322;9.450;2022-11-02T15:02:47;3.13;;;0.87;;
15938;SDS011;8068;51.322;9.450;2022-11-02T15:05:19;1.90;;;1.00;;
15938;SDS011;8068;51.322;9.450;2022-11-02T15:07:48;3.40;;;1.10;;
15938;SDS011;8068;51.322;9.450;2022-11-02T15:13:20;1.67;;;0.67;;
15938;SDS011;8068;51.322;9.450;2022-11-02T15:23:41;3.80;;;0.90;;
15938;SDS011;8068;51.322;9.450;2022-11-02T15:26:26;4.27;;;1.00;;
15938;SDS011;8068;51.322;9.450;2022-11-02T15:29:17;2.10;;;0.90;;
15938;SDS011;8068;51.322;9.450;2022-11-02T15:31:52;3.90;;;0.93;;
15938;SDS011;8068;51.322;9.450;2022-11-02T15:34:33;3.70;;;0.90;;
15938;SDS011;8068;51.322;9.450;2022-11-02T15:37:05;5.07;;;1.83;;
15938;SDS011;8068;51.322;9.450;2022-11-02T15:39:36;5.37;;;1.10;;
15938;SDS011;8068;51.322;9.450;2022-11-02T15:42:15;7.13;;;1.00;;
15938;SDS011;8068;51.322;9.450;2022-11-02T15:48:49;5.13;;;1.30;;
15938;SDS011;8068;51.322;9.450;2022-11-02T16:00:16;12.10;;;1.70;;
15938;SDS011;8068;51.322;9.450;2022-11-02T16:02:46;7.93;;;1.70;;
15938;SDS011;8068;51.322;9.450;2022-11-02T16:05:23;4.50;;;1.20;;
15938;SDS011;8068;51.322;9.450;2022-11-02T16:07:55;2.80;;;1.03;;
15938;SDS011;8068;51.322;9.450;2022-11-02T16:10:42;4.23;;;1.20;;
15938;SDS011;8068;51.322;9.450;2022-11-02T16:13:13;2.63;;;1.30;;
15938;SDS011;8068;51.322;9.450;2022-11-02T16:15:48;4.13;;;1.45;;
15938;SDS011;8068;51.322;9.450;2022-11-02T16:18:21;5.40;;;1.90;;
15938;SDS011;8068;51.322;9.450;2022-11-02T16:20:53;3.07;;;1.47;;
15938;SDS011;8068;51.322;9.450;2022-11-02T16:23:25;5.80;;;1.27;;
15938;SDS011;8068;51.322;9.450;2022-11-02T16:25:56;22.30;;;1.87;;
15938;SDS011;8068;51.322;9.450;2022-11-02T16:28:31;6.70;;;1.73;;
15938;SDS011;8068;51.322;9.450;2022-11-02T16:33:49;13.07;;;3.20;;
15938;SDS011;8068;51.322;9.450;2022-11-02T16:36:28;6.03;;;2.07;;
15938;SDS011;8068;51.322;9.450;2022-11-02T16:41:49;6.33;;;2.03;;
15938;SDS011;8068;51.322;9.450;2022-11-02T16:44:28;12.40;;;2.57;;
15938;SDS011;8068;51.322;9.450;2022-11-02T16:46:59;7.97;;;2.97;;
15938;SDS011;8068;51.322;9.450;2022-11-02T16:54:42;4.17;;;3.33;;
15938;SDS011;8068;51.322;9.450;2022-11-02T16:57:26;6.50;;;5.53;;
15938;SDS011;8068;51.322;9.450;2022-11-02T17:00:05;8.80;;;4.50;;
15938;SDS011;8068;51.322;9.450;2022-11-02T17:02:45;14.67;;;4.30;;
15938;SDS011;8068;51.322;9.450;2022-11-02T17:05:25;11.90;;;5.00;;
15938;SDS011;8068;51.322;9.450;2022-11-02T17:08:03;11.20;;;4.33;;
15938;SDS011;8068;51.322;9.450;2022-11-02T17:10:37;9.50;;;5.40;;
15938;SDS011;8068;51.322;9.450;2022-11-02T17:13:12;11.77;;;5.00;;
15938;SDS011;8068;51.322;9.450;2022-11-02T17:15:53;11.13;;;5.43;;
15938;SDS011;8068;51.322;9.450;2022-11-02T17:18:26;22.40;;;7.50;;
15938;SDS011;8068;51.322;9.450;2022-11-02T17:23:43;9.90;;;6.10;;
15938;SDS011;8068;51.322;9.450;2022-11-02T17:31:31;14.33;;;6.80;;
15938;SDS011;8068;51.322;9.450;2022-11-02T17:34:06;11.70;;;5.30;;
15938;SDS011;8068;51.322;9.450;2022-11-02T17:36:43;7.47;;;5.03;;
15938;SDS011;8068;51.322;9.450;2022-11-02T17:39:11;11.80;;;6.00;;
15938;SDS011;8068;51.322;9.450;2022-11-02T17:41:38;8.70;;;4.43;;
15938;SDS011;8068;51.322;9.450;2022-11-02T17:44:30;7.17;;;4.57;;
15938;SDS011;8068;51.322;9.450;2022-11-02T17:47:00;9.83;;;4.80;;
15938;SDS011;8068;51.322;9.450;2022-11-02T17:49:26;8.60;;;5.70;;
15938;SDS011;8068;51.322;9.450;2022-11-02T17:51:52;21.60;;;9.00;;
15938;SDS011;8068;51.322;9.450;2022-11-02T17:54:23;19.17;;;9.60;;
15938;SDS011;8068;51.322;9.450;2022-11-02T17:56:52;13.07;;;8.00;;
15938;SDS011;8068;51.322;9.450;2022-11-02T17:59:18;19.63;;;7.93;;
15938;SDS011;8068;51.322;9.450;2022-11-02T18:01:44;12.10;;;6.93;;
15938;SDS011;8068;51.322;9.450;2022-11-02T18:04:18;14.03;;;6.07;;
15938;SDS011;8068;51.322;9.450;2022-11-02T18:06:44;8.70;;;5.30;;
15938;SDS011;8068;51.322;9.450;2022-11-02T18:09:10;9.87;;;5.23;;
15938;SDS011;8068;51.322;9.450;2022-11-02T18:11:36;9.23;;;5.40;;
15938;SDS011;8068;51.322;9.450;2022-11-02T18:14:11;15.73;;;5.40;;
15938;SDS011;8068;51.322;9.450;2022-11-02T18:16:39;11.93;;;6.37;;
15938;SDS011;8068;51.322;9.450;2022-11-02T18:19:10;17.80;;;5.73;;
15938;SDS011;8068;51.322;9.450;2022-11-02T18:21:40;11.77;;;6.20;;
15938;SDS011;8068;51.322;9.450;2022-11-02T18:24:10;13.33;;;6.00;;
15938;SDS011;8068;51.322;9.450;2022-11-02T18:26:40;11.77;;;7.10;;
15938;SDS011;8068;51.322;9.450;2022-11-02T18:29:12;15.17;;;9.27;;
15938;SDS011;8068;51.322;9.450;2022-11-02T18:31:46;14.97;;;8.50;;
15938;SDS011;8068;51.322;9.450;2022-11-02T18:34:16;16.50;;;8.33;;
15938;SDS011;8068;51.322;9.450;2022-11-02T18:36:45;11.87;;;5.70;;
15938;SDS011;8068;51.322;9.450;2022-11-02T18:39:14;20.60;;;7.60;;
15938;SDS011;8068;51.322;9.450;2022-11-02T18:41:44;23.13;;;7.17;;
15938;SDS011;8068;51.322;9.450;2022-11-02T18:44:13;17.23;;;7.27;;